sensor_id;sensor_type;location;lat;lon;timestamp;temperature;humidity
40528;DHT22;26230;51.268;6.534;2024-02-21T00:00:00;10.9;100
40528;DHT22;26230;51.268;6.534;2024-02-21T00:10:00;10.9;100
40528;DHT22;26230;51.268;6.534;2024-02-21T00:20:00;11.0;100
40528;DHT22;26230;51.268;6.534;2024-02-21T00:30:00;11.1;100
40528;DHT22;26230;51.268;6.534;2024-02-21T00:40:00;11.3;100
40528;DHT22;26230;51.268;6.534;2024-02-21T00:50:00;11.3;100
40528;DHT22;26230;51.268;6.534;2024-02-21T01:00:01;11.2;100
40528;DHT22;26230;51.268;6.534;2024-02-21T01:10:02;11.2;100
40528;DHT22;26230;51.268;6.534;2024-02-21T01:20:00;11.2;100
40528;DHT22;26230;51.268;6.534;2024-02-21T01:30:00;11.3;100
40528;DHT22;26230;51.268;6.534;2024-02-21T01:40:00;11.5;100
40528;DHT22;26230;51.268;6.534;2024-02-21T01:50:00;11.4;100
40528;DHT22;26230;51.268;6.534;2024-02-21T02:00:00;11.3;100
40528;DHT22;26230;51.268;6.534;2024-02-21T02:10:00;11.4;100
40528;DHT22;26230;51.268;6.534;2024-02-21T02:20:00;11.4;100
40528;DHT22;26230;51.268;6.534;2024-02-21T02:30:00;11.3;100
40528;DHT22;26230;51.268;6.534;2024-02-21T02:40:00;11.3;100
40528;DHT22;26230;51.268;6.534;2024-02-21T02:50:00;11.2;100
40528;DHT22;26230;51.268;6.534;2024-02-21T03:00:00;11.1;100
40528;DHT22;26230;51.268;6.534;2024-02-21T03:10:00;11.0;100
40528;DHT22;26230;51.268;6.534;2024-02-21T03:20:00;10.9;100
40528;DHT22;26230;51.268;6.534;2024-02-21T03:30:00;10.8;100
40528;DHT22;26230;51.268;6.534;2024-02-21T03:40:00;10.8;100
40528;DHT22;26230;51.268;6.534;2024-02-21T03:50:00;10.8;100
40528;DHT22;26230;51.268;6.534;2024-02-21T04:00:00;10.8;100
40528;DHT22;26230;51.268;6.534;2024-02-21T04:10:00;10.9;100
40528;DHT22;26230;51.268;6.534;2024-02-21T04:20:02;11.0;100
40528;DHT22;26230;51.268;6.534;2024-02-21T04:30:00;10.9;100
40528;DHT22;26230;51.268;6.534;2024-02-21T04:40:00;10.9;100
40528;DHT22;26230;51.268;6.534;2024-02-21T04:50:00;11.0;100
40528;DHT22;26230;51.268;6.534;2024-02-21T05:00:00;11.0;100
40528;DHT22;26230;51.268;6.534;2024-02-21T05:10:02;11.1;100
40528;DHT22;26230;51.268;6.534;2024-02-21T05:20:00;11.1;100
40528;DHT22;26230;51.268;6.534;2024-02-21T05:30:00;11.0;100
40528;DHT22;26230;51.268;6.534;2024-02-21T05:40:00;11.0;100
40528;DHT22;26230;51.268;6.534;2024-02-21T05:50:00;11.1;100
40528;DHT22;26230;51.268;6.534;2024-02-21T06:00:00;11.1;100
40528;DHT22;26230;51.268;6.534;2024-02-21T06:10:02;11.0;100
40528;DHT22;26230;51.268;6.534;2024-02-21T06:20:00;11.0;100
40528;DHT22;26230;51.268;6.534;2024-02-21T06:30:00;11.1;100
40528;DHT22;26230;51.268;6.534;2024-02-21T06:40:00;11.0;100
40528;DHT22;26230;51.268;6.534;2024-02-21T06:50:00;11.1;100
40528;DHT22;26230;51.268;6.534;2024-02-21T07:00:00;11.1;100
40528;DHT22;26230;51.268;6.534;2024-02-21T07:10:00;11.1;100
40528;DHT22;26230;51.268;6.534;2024-02-21T07:20:02;11.2;100
40528;DHT22;26230;51.268;6.534;2024-02-21T07:30:00;11.0;100
40528;DHT22;26230;51.268;6.534;2024-02-21T07:40:00;10.8;100
40528;DHT22;26230;51.268;6.534;2024-02-21T07:50:01;10.8;100
40528;DHT22;26230;51.268;6.534;2024-02-21T08:00:02;10.8;100
40528;DHT22;26230;51.268;6.534;2024-02-21T08:10:02;10.7;100
40528;DHT22;26230;51.268;6.534;2024-02-21T08:20:02;10.7;100
40528;DHT22;26230;51.268;6.534;2024-02-21T08:30:00;10.6;100
40528;DHT22;26230;51.268;6.534;2024-02-21T08:40:00;10.6;100
40528;DHT22;26230;51.268;6.534;2024-02-21T08:50:00;10.8;100
40528;DHT22;26230;51.268;6.534;2024-02-21T09:00:00;10.8;100
40528;DHT22;26230;51.268;6.534;2024-02-21T09:10:00;10.9;100
40528;DHT22;26230;51.268;6.534;2024-02-21T09:20:00;10.9;100
40528;DHT22;26230;51.268;6.534;2024-02-21T09:30:00;10.9;100
40528;DHT22;26230;51.268;6.534;2024-02-21T09:40:00;10.9;100
40528;DHT22;26230;51.268;6.534;2024-02-21T09:50:00;11.1;100
40528;DHT22;26230;51.268;6.534;2024-02-21T10:00:00;11.2;100
40528;DHT22;26230;51.268;6.534;2024-02-21T10:10:02;11.3;100
40528;DHT22;26230;51.268;6.534;2024-02-21T10:20:09;11.5;100
40528;DHT22;26230;51.268;6.534;2024-02-21T10:30:00;11.5;100
40528;DHT22;26230;51.268;6.534;2024-02-21T10:40:00;11.6;100
40528;DHT22;26230;51.268;6.534;2024-02-21T10:50:03;11.7;100
40528;DHT22;26230;51.268;6.534;2024-02-21T11:00:00;11.8;100
40528;DHT22;26230;51.268;6.534;2024-02-21T11:10:00;12.2;100
40528;DHT22;26230;51.268;6.534;2024-02-21T11:20:10;12.5;100
40528;DHT22;26230;51.268;6.534;2024-02-21T11:30:00;12.5;100
40528;DHT22;26230;51.268;6.534;2024-02-21T11:40:00;12.6;100
40528;DHT22;26230;51.268;6.534;2024-02-21T11:50:00;12.5;100
40528;DHT22;26230;51.268;6.534;2024-02-21T12:00:09;12.5;100
40528;DHT22;26230;51.268;6.534;2024-02-21T12:10:00;12.7;100
40528;DHT22;26230;51.268;6.534;2024-02-21T12:20:01;12.9;100
40528;DHT22;26230;51.268;6.534;2024-02-21T12:30:00;13.1;100
40528;DHT22;26230;51.268;6.534;2024-02-21T12:40:00;13.4;100
40528;DHT22;26230;51.268;6.534;2024-02-21T12:50:00;13.7;100
40528;DHT22;26230;51.268;6.534;2024-02-21T13:00:00;13.9;99
40528;DHT22;26230;51.268;6.534;2024-02-21T13:10:02;13.9;98
40528;DHT22;26230;51.268;6.534;2024-02-21T13:20:00;14.1;97
40528;DHT22;26230;51.268;6.534;2024-02-21T13:30:00;14.2;97
40528;DHT22;26230;51.268;6.534;2024-02-21T13:40:00;14.3;97
40528;DHT22;26230;51.268;6.534;2024-02-21T13:50:00;14.2;96
40528;DHT22;26230;51.268;6.534;2024-02-21T14:00:00;14.0;96
40528;DHT22;26230;51.268;6.534;2024-02-21T14:10:00;14.0;96
40528;DHT22;26230;51.268;6.534;2024-02-21T14:20:00;14.2;96
40528;DHT22;26230;51.268;6.534;2024-02-21T14:30:00;14.1;96
40528;DHT22;26230;51.268;6.534;2024-02-21T14:40:00;14.1;96
40528;DHT22;26230;51.268;6.534;2024-02-21T14:50:02;14.1;95
40528;DHT22;26230;51.268;6.534;2024-02-21T15:00:00;14.1;96
40528;DHT22;26230;51.268;6.534;2024-02-21T15:10:00;14.1;95
40528;DHT22;26230;51.268;6.534;2024-02-21T15:20:00;14.0;94
40528;DHT22;26230;51.268;6.534;2024-02-21T15:30:01;13.8;93
40528;DHT22;26230;51.268;6.534;2024-02-21T15:40:00;13.7;91
40528;DHT22;26230;51.268;6.534;2024-02-21T15:50:00;13.7;90
40528;DHT22;26230;51.268;6.534;2024-02-21T16:00:02;13.7;92
40528;DHT22;26230;51.268;6.534;2024-02-21T16:10:00;13.7;92
40528;DHT22;26230;51.268;6.534;2024-02-21T16:20:00;13.7;92
40528;DHT22;26230;51.268;6.534;2024-02-21T16:30:00;13.3;93
40528;DHT22;26230;51.268;6.534;2024-02-21T16:40:00;13.0;95
40528;DHT22;26230;51.268;6.534;2024-02-21T16:50:00;13.0;96
40528;DHT22;26230;51.268;6.534;2024-02-21T17:00:00;12.9;97
40528;DHT22;26230;51.268;6.534;2024-02-21T17:10:00;12.8;98
40528;DHT22;26230;51.268;6.534;2024-02-21T17:20:00;12.8;98
40528;DHT22;26230;51.268;6.534;2024-02-21T17:30:00;12.6;99
40528;DHT22;26230;51.268;6.534;2024-02-21T17:40:00;12.5;100
40528;DHT22;26230;51.268;6.534;2024-02-21T17:50:02;12.3;100
40528;DHT22;26230;51.268;6.534;2024-02-21T18:00:00;12.1;100
40528;DHT22;26230;51.268;6.534;2024-02-21T18:10:00;12.0;100
40528;DHT22;26230;51.268;6.534;2024-02-21T18:20:00;12.0;100
40528;DHT22;26230;51.268;6.534;2024-02-21T18:30:00;11.9;100
40528;DHT22;26230;51.268;6.534;2024-02-21T18:40:00;11.7;100
40528;DHT22;26230;51.268;6.534;2024-02-21T18:50:02;11.7;100
40528;DHT22;26230;51.268;6.534;2024-02-21T19:00:00;11.6;100
40528;DHT22;26230;51.268;6.534;2024-02-21T19:10:00;11.5;100
40528;DHT22;26230;51.268;6.534;2024-02-21T19:20:00;11.5;100
40528;DHT22;26230;51.268;6.534;2024-02-21T19:30:02;11.4;100
40528;DHT22;26230;51.268;6.534;2024-02-21T19:40:00;11.4;100
40528;DHT22;26230;51.268;6.534;2024-02-21T19:50:02;11.4;100
40528;DHT22;26230;51.268;6.534;2024-02-21T20:00:00;11.4;100
40528;DHT22;26230;51.268;6.534;2024-02-21T20:10:00;11.4;100
40528;DHT22;26230;51.268;6.534;2024-02-21T20:20:02;11.4;100
40528;DHT22;26230;51.268;6.534;2024-02-21T20:30:00;11.4;100
40528;DHT22;26230;51.268;6.534;2024-02-21T20:40:00;11.3;100
40528;DHT22;26230;51.268;6.534;2024-02-21T20:50:02;11.4;100
40528;DHT22;26230;51.268;6.534;2024-02-21T21:00:01;11.3;100
40528;DHT22;26230;51.268;6.534;2024-02-21T21:10:00;11.2;100
40528;DHT22;26230;51.268;6.534;2024-02-21T21:20:00;11.3;100
40528;DHT22;26230;51.268;6.534;2024-02-21T21:30:00;11.3;100
40528;DHT22;26230;51.268;6.534;2024-02-21T21:40:00;11.3;100
40528;DHT22;26230;51.268;6.534;2024-02-21T21:50:00;11.4;100
40528;DHT22;26230;51.268;6.534;2024-02-21T22:00:00;11.2;100
40528;DHT22;26230;51.268;6.534;2024-02-21T22:10:00;11.3;100
40528;DHT22;26230;51.268;6.534;2024-02-21T22:20:00;11.3;100
40528;DHT22;26230;51.268;6.534;2024-02-21T22:30:00;11.3;100
40528;DHT22;26230;51.268;6.534;2024-02-21T22:40:00;11.3;100
40528;DHT22;26230;51.268;6.534;2024-02-21T22:50:00;11.3;100
40528;DHT22;26230;51.268;6.534;2024-02-21T23:00:00;11.4;100
40528;DHT22;26230;51.268;6.534;2024-02-21T23:10:01;11.4;100
40528;DHT22;26230;51.268;6.534;2024-02-21T23:20:00;11.4;100
40528;DHT22;26230;51.268;6.534;2024-02-21T23:30:00;11.4;100
40528;DHT22;26230;51.268;6.534;2024-02-21T23:40:02;11.4;100
40528;DHT22;26230;51.268;6.534;2024-02-21T23:50:00;11.5;100
